Time;durP1;ratioP1;P1;durP2;ratioP2;P2;SDS_P1;SDS_P2;PMS_P1;PMS_P2;Temp;Humidity;BMP_temperature;BMP_pressure;BME280_temperature;BME280_humidity;BME280_pressure;Samples;Min_cycle;Max_cycle;Signal;HPM_P1;HPM_P2
2022/03/16 05:32:44;;;;;;;27.23;15.52;;;;;;;5.32;100.00;102500.25;10650688;27;20122;-66
2022/03/16 05:38:08;;;;;;;31.73;16.73;;;;;;;5.22;100.00;102503.88;10658522;27;20102;-68
2022/03/16 05:43:29;;;;;;;26.08;15.52;;;;;;;5.36;100.00;102504.50;10649351;27;20043;-66
2022/03/16 05:48:51;;;;;;;30.85;15.95;;;;;;;5.36;100.00;102501.91;10662960;27;20054;-65
2022/03/16 05:54:12;;;;;;;33.15;16.35;;;;;;;5.47;100.00;102512.91;10649807;27;20046;-66
2022/03/16 05:59:34;;;;;;;36.67;17.42;;;;;;;5.56;100.00;102520.50;10652169;27;20051;-66
2022/03/16 06:04:56;;;;;;;35.03;18.00;;;;;;;5.56;100.00;102530.84;10648117;27;20053;-67
2022/03/16 06:10:18;;;;;;;34.20;18.45;;;;;;;5.70;100.00;102522.00;10649145;27;20491;-65
2022/03/16 06:15:44;;;;;;;32.50;17.55;;;;;;;5.83;100.00;102517.47;10647813;27;20621;-66
2022/03/16 06:21:05;;;;;;;36.13;19.90;;;;;;;5.92;100.00;102525.09;10649033;27;20046;-66
2022/03/16 06:26:27;;;;;;;35.70;19.33;;;;;;;5.94;100.00;102534.50;10647134;27;20054;-66
2022/03/16 06:31:49;;;;;;;38.15;20.00;;;;;;;6.07;100.00;102532.56;10647633;27;20055;-67
2022/03/16 06:37:11;;;;;;;39.15;19.40;;;;;;;6.16;100.00;102540.13;10633561;27;20126;-66
2022/03/16 06:42:32;;;;;;;43.67;20.83;;;;;;;6.19;100.00;102540.91;10646935;27;20061;-65
2022/03/16 06:47:55;;;;;;;36.85;17.77;;;;;;;6.19;100.00;102545.25;10645647;27;20050;-66
2022/03/16 06:53:17;;;;;;;36.20;18.88;;;;;;;6.13;100.00;102540.19;10661278;27;20058;-66
2022/03/16 06:58:39;;;;;;;35.03;17.58;;;;;;;6.09;100.00;102534.22;10645905;27;20387;-66
2022/03/16 07:04:00;;;;;;;33.13;16.10;;;;;;;6.07;100.00;102537.72;10646219;27;20056;-66
2022/03/16 07:09:22;;;;;;;31.90;17.00;;;;;;;6.17;100.00;102536.66;10602862;27;20043;-67
2022/03/16 07:14:44;;;;;;;30.60;16.75;;;;;;;6.26;100.00;102528.75;10609663;27;20145;-65
2022/03/16 07:20:07;;;;;;;32.15;16.67;;;;;;;6.11;100.00;102540.22;10645652;27;20817;-64
2022/03/16 07:25:29;;;;;;;31.10;16.95;;;;;;;6.24;100.00;102535.69;10644076;27;20049;-66
2022/03/16 07:30:51;;;;;;;35.55;18.52;;;;;;;6.45;100.00;102543.00;10645400;27;20050;-66
2022/03/16 07:36:12;;;;;;;36.00;18.20;;;;;;;6.52;100.00;102548.03;10629835;27;20050;-65
2022/03/16 07:41:34;;;;;;;41.08;18.70;;;;;;;6.58;100.00;102554.81;10644125;27;20069;-65
2022/03/16 07:46:56;;;;;;;43.58;19.42;;;;;;;6.65;100.00;102546.88;10643664;27;20039;-65
2022/03/16 07:52:20;;;;;;;33.30;18.20;;;;;;;6.77;100.00;102552.66;10658030;27;20047;-65
2022/03/16 07:57:41;;;;;;;30.50;18.05;;;;;;;6.82;100.00;102566.41;10644147;27;20098;-65
2022/03/16 08:03:03;;;;;;;31.60;18.52;;;;;;;6.93;100.00;102569.59;10642540;27;20046;-65
2022/03/16 08:08:25;;;;;;;37.83;19.15;;;;;;;7.12;100.00;102570.03;10643842;27;20135;-66
2022/03/16 08:13:47;;;;;;;38.53;18.75;;;;;;;7.06;100.00;102576.22;10645198;27;20054;-66
2022/03/16 08:19:08;;;;;;;35.90;18.42;;;;;;;7.30;100.00;102575.66;10643746;27;20046;-67
2022/03/16 08:24:30;;;;;;;33.60;18.90;;;;;;;7.43;100.00;102581.41;10643418;27;20107;-66
2022/03/16 08:30:11;;;;;;;41.72;22.25;;;;;;;7.59;100.00;102588.78;10643178;27;20133;-66
2022/03/16 08:35:33;;;;;;;40.45;20.90;;;;;;;7.67;100.00;102592.91;10642767;27;20077;-65
2022/03/16 08:40:55;;;;;;;42.63;21.00;;;;;;;7.77;100.00;102593.53;10628724;27;20061;-66
2022/03/16 08:46:16;;;;;;;45.10;22.58;;;;;;;8.00;100.00;102591.22;10642881;27;20047;-65
2022/03/16 08:51:39;;;;;;;36.42;20.77;;;;;;;8.16;100.00;102587.34;10609030;27;20043;-66
2022/03/16 08:57:01;;;;;;;40.10;21.33;;;;;;;8.26;100.00;102588.81;10643555;27;20034;-65
2022/03/16 09:02:23;;;;;;;44.97;21.80;;;;;;;8.40;100.00;102586.69;10650653;27;20144;-65
2022/03/16 09:07:44;;;;;;;42.88;22.58;;;;;;;8.41;100.00;102591.00;10651097;27;20039;-66
2022/03/16 09:13:06;;;;;;;56.95;24.55;;;;;;;8.52;100.00;102597.56;10650581;27;20057;-66
2022/03/16 09:18:31;;;;;;;49.53;24.80;;;;;;;8.62;100.00;102588.66;10650707;27;20107;-66
2022/03/16 09:23:54;;;;;;;46.05;25.58;;;;;;;8.74;100.00;102593.50;10650733;27;20530;-65
2022/03/16 09:29:18;;;;;;;45.13;25.08;;;;;;;8.86;100.00;102594.00;10648982;27;20053;-65
2022/03/16 09:34:40;;;;;;;49.85;27.42;;;;;;;9.07;100.00;102588.13;10634504;27;20051;-66
2022/03/16 09:40:03;;;;;;;58.63;28.98;;;;;;;9.24;100.00;102591.06;10650273;27;20046;-65
2022/03/16 09:45:29;;;;;;;60.42;28.65;;;;;;;9.38;100.00;102588.91;10648631;27;20065;-65
2022/03/16 09:50:54;;;;;;;57.13;29.15;;;;;;;9.49;100.00;102592.00;10649035;27;20574;-66
2022/03/16 09:56:20;;;;;;;54.83;27.77;;;;;;;9.69;100.00;102579.19;10684962;27;20133;-67
2022/03/16 10:01:43;;;;;;;57.25;29.40;;;;;;;9.88;100.00;102575.09;10635527;27;20103;-65
2022/03/16 10:07:05;;;;;;;50.90;27.05;;;;;;;10.07;99.69;102569.22;10648358;27;20047;-65
2022/03/16 10:18:08;;;;;;;49.15;24.17;;;;;;;10.57;92.61;102563.91;10647984;27;20138;-65
2022/03/16 10:23:33;;;;;;;50.28;24.08;;;;;;;10.62;94.03;102561.97;10648535;27;20054;-65
2022/03/16 10:29:03;;;;;;;43.25;22.00;;;;;;;10.98;87.69;102555.38;10647122;27;20052;-65
2022/03/16 10:34:25;;;;;;;46.22;22.30;;;;;;;10.86;90.82;102553.22;10647745;27;20068;-65
2022/03/16 10:39:50;;;;;;;45.00;23.02;;;;;;;10.88;92.02;102527.94;10661461;27;20075;-65
2022/03/16 10:50:57;;;;;;;46.60;22.97;;;;;;;10.98;89.85;102539.69;10668918;27;20050;-67
2022/03/16 10:56:20;;;;;;;41.08;21.05;;;;;;;11.13;88.25;102527.84;10666208;27;20042;-66
2022/03/16 11:01:42;;;;;;;38.47;20.95;;;;;;;11.16;87.99;102520.72;10631966;27;20058;-65
2022/03/16 11:07:05;;;;;;;40.03;21.67;;;;;;;11.19;89.56;102510.16;10646037;27;20045;-65
2022/03/16 11:18:10;;;;;;;38.45;20.08;;;;;;;11.28;89.29;102486.28;10645710;27;20047;-65
2022/03/16 11:29:41;;;;;;;35.85;17.40;;;;;;;11.71;82.77;102496.66;10643583;27;20053;-65
2022/03/16 11:35:07;;;;;;;35.10;17.98;;;;;;;11.56;84.91;102494.69;10645162;27;20046;-65
2022/03/16 11:40:30;;;;;;;26.52;14.30;;;;;;;11.91;75.75;102483.59;10644495;27;20054;-65
2022/03/16 11:45:57;;;;;;;27.83;15.20;;;;;;;11.97;77.64;102478.09;10643490;27;20057;-65
2022/03/16 11:51:23;;;;;;;31.17;14.95;;;;;;;11.99;77.89;102476.25;10656191;27;20046;-65
2022/03/16 11:56:46;;;;;;;30.40;15.80;;;;;;;12.10;79.83;102474.00;10657882;27;20293;-65
2022/03/16 12:02:12;;;;;;;27.15;15.57;;;;;;;12.27;78.60;102466.25;10644274;27;20047;-65
2022/03/16 12:07:35;;;;;;;28.00;14.20;;;;;;;12.64;72.65;102461.88;10643963;27;20062;-65
2022/03/16 12:13:09;;;;;;;23.77;13.15;;;;;;;12.41;76.35;102466.47;10628940;27;20522;-65
2022/03/16 12:18:39;;;;;;;25.17;12.07;;;;;;;12.48;70.33;102458.28;10643547;27;20041;-65
2022/03/16 12:29:48;;;;;;;21.02;12.93;;;;;;;12.87;68.95;102444.16;10624994;27;20039;-65
2022/03/16 12:35:11;;;;;;;23.85;13.13;;;;;;;12.65;71.12;102440.91;10656954;27;20047;-65
2022/03/16 12:40:32;;;;;;;24.60;13.30;;;;;;;12.94;69.56;102435.16;10642378;27;20486;-65
2022/03/16 12:46:26;;;;;;;25.65;14.07;;;;;;;13.04;72.47;102436.38;10627699;27;20047;-64
2022/03/16 12:51:59;;;;;;;30.50;13.95;;;;;;;13.01;72.80;102440.94;10614832;28;20495;-64
2022/03/16 12:57:21;;;;;;;24.08;13.27;;;;;;;13.24;68.60;102431.03;10621671;27;20047;-64
2022/03/16 13:02:44;;;;;;;27.42;13.52;;;;;;;13.34;66.19;102424.38;10642804;27;20513;-64
2022/03/16 13:08:07;;;;;;;25.02;13.43;;;;;;;13.30;70.06;102416.75;10599789;28;20047;-65
2022/03/16 13:13:29;;;;;;;24.63;13.18;;;;;;;13.23;71.61;102408.38;10614908;27;20054;-65
2022/03/16 13:18:50;;;;;;;23.83;13.27;;;;;;;13.52;66.48;102423.47;10642525;27;20042;-65
2022/03/16 13:24:12;;;;;;;26.85;14.43;;;;;;;13.42;70.54;102422.22;10641833;27;20072;-66
2022/03/16 13:29:37;;;;;;;25.48;13.80;;;;;;;13.28;70.83;102408.97;10642317;27;20590;-66
2022/03/16 13:35:26;;;;;;;21.53;13.33;;;;;;;13.13;71.91;102401.88;10604021;27;20561;-63
2022/03/16 13:40:48;;;;;;;30.42;14.38;;;;;;;13.13;72.47;102401.88;10619507;27;20069;-67
2022/03/16 13:46:14;;;;;;;28.45;13.27;;;;;;;13.06;71.76;102397.88;10649492;27;20041;-65
2022/03/16 13:51:35;;;;;;;24.77;14.13;;;;;;;13.11;70.22;102395.88;10662778;27;20111;-65
2022/03/16 13:57:07;;;;;;;23.38;13.23;;;;;;;13.35;67.98;102399.88;10649422;27;20050;-68
2022/03/16 14:02:30;;;;;;;23.52;12.57;;;;;;;13.02;72.58;102391.09;10648890;27;20039;-66
2022/03/16 14:07:55;;;;;;;23.20;12.95;;;;;;;13.25;69.29;102396.03;10663000;27;20133;-67
2022/03/16 14:13:17;;;;;;;22.50;12.60;;;;;;;13.47;66.63;102394.03;10647960;27;20134;-67
2022/03/16 14:18:40;;;;;;;25.05;13.35;;;;;;;13.41;69.91;102378.59;10647606;27;20046;-68
2022/03/16 14:24:02;;;;;;;23.98;12.75;;;;;;;13.38;69.41;102373.53;10636489;27;20055;-68
2022/03/16 14:29:24;;;;;;;26.60;12.68;;;;;;;13.57;65.43;102369.03;10651143;27;20483;-69
2022/03/16 14:34:45;;;;;;;23.15;13.43;;;;;;;13.78;62.83;102370.53;10591000;27;20050;-68
2022/03/16 14:40:09;;;;;;;25.10;12.75;;;;;;;13.64;65.26;102360.75;10611112;27;20134;-68
2022/03/16 14:45:31;;;;;;;21.30;12.18;;;;;;;13.48;64.42;102332.84;10591165;27;20047;-69
2022/03/16 14:50:53;;;;;;;21.63;12.13;;;;;;;13.63;63.20;102340.72;10612891;27;20058;-67
2022/03/16 14:56:15;;;;;;;26.77;12.60;;;;;;;13.38;66.88;102341.25;10618647;27;20126;-65
2022/03/16 15:01:37;;;;;;;23.00;11.80;;;;;;;14.13;63.97;102335.41;10619685;27;20137;-66
2022/03/16 15:06:59;;;;;;;22.15;11.82;;;;;;;14.10;65.21;102325.06;10617885;27;20046;-64
2022/03/16 15:12:20;;;;;;;22.92;12.43;;;;;;;14.11;64.67;102318.88;10619216;27;20418;-64
2022/03/16 15:17:42;;;;;;;20.73;11.52;;;;;;;13.87;63.31;102317.59;10616885;27;20150;-64
2022/03/16 15:23:04;;;;;;;21.30;11.40;;;;;;;14.08;64.45;102298.06;10616766;27;20051;-65
2022/03/16 15:28:26;;;;;;;18.25;10.73;;;;;;;13.90;64.40;102288.59;10608633;27;20050;-64
2022/03/16 15:33:48;;;;;;;17.30;10.75;;;;;;;13.48;64.96;102280.44;10607967;27;20055;-64
2022/03/16 15:39:10;;;;;;;20.17;10.63;;;;;;;13.25;66.78;102266.88;10599720;27;20044;-64
2022/03/16 15:44:31;;;;;;;22.67;11.27;;;;;;;13.11;64.97;102269.34;10607352;27;20054;-65
2022/03/16 15:49:53;;;;;;;23.35;10.75;;;;;;;13.20;67.91;102266.25;10593903;27;20678;-65
2022/03/16 15:55:15;;;;;;;22.23;10.50;;;;;;;12.92;68.40;102263.38;10577782;27;20055;-65
2022/03/16 16:00:36;;;;;;;21.25;10.68;;;;;;;12.97;66.10;102243.88;10585278;27;20629;-64
2022/03/16 16:05:58;;;;;;;18.77;9.73;;;;;;;12.72;68.79;102225.09;10598144;27;20112;-65
2022/03/16 16:11:20;;;;;;;21.58;10.00;;;;;;;12.80;66.86;102233.44;10585155;27;20522;-64
2022/03/16 16:16:45;;;;;;;17.83;9.85;;;;;;;12.71;66.75;102223.41;10599240;27;20039;-64
2022/03/16 16:22:08;;;;;;;19.75;9.45;;;;;;;12.57;68.31;102232.91;10593248;27;20047;-64
2022/03/16 16:27:30;;;;;;;16.48;8.77;;;;;;;12.67;66.01;102232.34;10608227;27;20516;-64
2022/03/16 16:32:52;;;;;;;19.02;9.18;;;;;;;12.49;66.18;102222.81;10609471;28;20047;-64
2022/03/16 16:38:14;;;;;;;20.40;9.50;;;;;;;12.49;66.37;102212.34;10608493;28;20051;-65
2022/03/16 16:43:38;;;;;;;19.52;9.95;;;;;;;12.50;67.00;102206.22;10608954;27;20047;-64
2022/03/16 16:49:00;;;;;;;16.40;9.55;;;;;;;12.35;70.10;102193.03;10608393;28;20500;-64
2022/03/16 16:54:21;;;;;;;17.13;9.70;;;;;;;12.47;69.32;102191.59;10606614;28;20047;-64
2022/03/16 16:59:43;;;;;;;20.67;9.55;;;;;;;12.32;69.46;102181.88;10608605;28;20051;-64
2022/03/16 17:05:09;;;;;;;17.95;9.57;;;;;;;12.22;68.06;102183.28;10608485;27;20058;-64
2022/03/16 17:10:35;;;;;;;16.83;9.20;;;;;;;12.16;68.54;102192.25;10613512;27;20123;-64
2022/03/16 17:15:58;;;;;;;23.45;9.93;;;;;;;12.06;70.85;102184.97;10601755;27;20058;-66
2022/03/16 17:21:20;;;;;;;16.83;9.93;;;;;;;11.77;69.88;102188.13;10613804;27;20073;-64
2022/03/16 17:26:42;;;;;;;17.48;9.93;;;;;;;11.85;70.31;102196.44;10637824;27;20175;-64
2022/03/16 17:32:05;;;;;;;17.92;9.60;;;;;;;11.90;71.78;102204.91;10644492;27;20066;-64
2022/03/16 17:37:27;;;;;;;20.50;10.63;;;;;;;11.81;70.01;102200.09;10662441;27;20039;-64
2022/03/16 17:48:30;;;;;;;19.38;9.55;;;;;;;11.74;71.15;102222.22;10633263;27;20042;-65
2022/03/16 17:53:52;;;;;;;20.58;10.20;;;;;;;11.42;71.83;102229.84;10629017;27;20057;-64
2022/03/16 17:59:21;;;;;;;17.77;9.13;;;;;;;11.41;72.33;102213.31;10644142;27;20134;-64
2022/03/16 18:04:42;;;;;;;18.02;9.82;;;;;;;11.52;71.34;102230.19;10636308;27;20128;-64
2022/03/16 18:15:45;;;;;;;16.10;9.55;;;;;;;11.17;71.82;102232.69;10634375;27;20058;-65
2022/03/16 18:21:08;;;;;;;14.88;9.40;;;;;;;11.14;72.90;102201.50;10654305;27;20133;-64
2022/03/16 18:26:29;;;;;;;17.77;9.35;;;;;;;11.25;72.06;102229.75;10620113;27;20035;-64
2022/03/16 18:31:51;;;;;;;18.67;9.52;;;;;;;11.12;71.06;102249.47;10622866;27;20368;-64
2022/03/16 18:37:13;;;;;;;13.48;8.40;;;;;;;11.08;72.59;102225.25;10658779;27;20046;-64
2022/03/16 18:42:34;;;;;;;16.70;8.63;;;;;;;11.05;71.61;102228.03;10626043;27;20051;-64
2022/03/16 18:47:56;;;;;;;16.00;8.80;;;;;;;11.06;71.08;102229.69;10650616;27;20142;-63
2022/03/16 18:53:18;;;;;;;16.58;8.38;;;;;;;10.92;71.51;102208.59;10645757;27;20066;-63
2022/03/16 18:58:39;;;;;;;18.38;8.50;;;;;;;10.89;70.71;102208.75;10660240;27;20046;-63
2022/03/16 19:04:01;;;;;;;16.42;8.43;;;;;;;11.03;69.53;102219.41;10646561;27;20055;-64
2022/03/16 19:09:24;;;;;;;14.13;8.43;;;;;;;10.80;70.92;102219.56;10645652;27;20039;-63
2022/03/16 19:14:45;;;;;;;15.10;8.52;;;;;;;11.04;70.41;102223.72;10645477;27;20050;-63
2022/03/16 19:20:13;;;;;;;13.00;7.97;;;;;;;10.82;71.91;102209.06;10646080;27;20487;-63
2022/03/16 19:25:35;;;;;;;16.85;8.10;;;;;;;10.85;71.78;102220.22;10623772;27;20050;-63
2022/03/16 19:30:56;;;;;;;14.80;8.45;;;;;;;10.92;71.02;102216.41;10624329;27;20570;-64
2022/03/16 19:36:18;;;;;;;15.80;8.98;;;;;;;10.62;72.30;102170.78;10632963;27;20062;-63
2022/03/16 19:41:40;;;;;;;13.98;8.68;;;;;;;10.86;71.73;102185.41;10628540;27;20046;-63
2022/03/16 19:47:02;;;;;;;16.85;9.27;;;;;;;10.73;71.70;102173.81;10605427;27;20406;-62
2022/03/16 19:52:25;;;;;;;16.67;9.23;;;;;;;10.86;71.31;102169.75;10645534;27;20074;-62
2022/03/16 19:57:47;;;;;;;14.93;8.50;;;;;;;10.77;70.28;102154.47;10644012;27;20034;-62
2022/03/16 20:03:11;;;;;;;16.80;9.27;;;;;;;10.69;71.41;102167.03;10643756;27;20053;-63
2022/03/16 20:08:33;;;;;;;17.85;9.10;;;;;;;10.62;72.56;102169.97;10643676;27;20046;-62
2022/03/16 20:13:55;;;;;;;15.20;8.95;;;;;;;10.58;72.29;102157.97;10630178;27;20056;-62
2022/03/16 20:19:17;;;;;;;18.95;8.73;;;;;;;10.58;72.57;102148.41;10643500;27;20047;-62
2022/03/16 20:24:38;;;;;;;16.60;9.35;;;;;;;10.38;73.66;102141.47;10643075;27;20046;-62
2022/03/16 20:30:01;;;;;;;16.15;8.55;;;;;;;10.38;73.28;102124.09;10643541;27;20050;-62
2022/03/16 20:35:23;;;;;;;16.05;9.27;;;;;;;10.40;73.38;102134.44;10643098;27;20051;-63
2022/03/16 20:40:45;;;;;;;14.73;8.82;;;;;;;10.51;72.98;102134.81;10644150;27;20062;-63
2022/03/16 20:46:07;;;;;;;16.50;9.73;;;;;;;10.40;72.95;102129.25;10651918;27;20061;-62
2022/03/16 20:51:34;;;;;;;17.33;9.05;;;;;;;10.37;73.94;102147.59;10664409;27;20494;-62
2022/03/16 20:56:55;;;;;;;16.08;9.68;;;;;;;10.49;74.31;102150.53;10652155;27;20035;-62
2022/03/16 21:02:19;;;;;;;18.92;10.02;;;;;;;10.60;73.29;102150.91;10651381;27;20532;-62
2022/03/16 21:07:44;;;;;;;21.00;9.65;;;;;;;10.58;72.37;102156.22;10650170;27;20043;-62
2022/03/16 21:13:07;;;;;;;14.55;9.70;;;;;;;10.45;74.28;102171.59;10651105;27;20090;-62
2022/03/16 21:18:28;;;;;;;18.67;10.60;;;;;;;10.47;73.90;102175.00;10650124;27;20038;-62
2022/03/16 21:23:50;;;;;;;20.23;10.68;;;;;;;10.47;73.69;102172.41;10650385;27;20053;-62
2022/03/16 21:29:12;;;;;;;17.85;10.27;;;;;;;10.31;74.21;102166.97;10649210;27;20054;-62
2022/03/16 21:34:33;;;;;;;18.08;10.88;;;;;;;10.45;74.13;102162.00;10649406;27;20051;-62
2022/03/16 21:42:45;;;;;;;17.05;10.23;;;;;;;10.38;75.76;102154.53;10655531;27;20055;-63
2022/03/16 21:45:41;;;;;;;20.90;11.38;;;;;;;10.34;75.42;102153.81;10649342;27;20410;-63
2022/03/16 21:56:34;;;;;;;20.02;11.27;;;;;;;10.37;75.48;102140.66;10649336;27;20050;-63
2022/03/16 22:01:55;;;;;;;18.90;11.65;;;;;;;10.24;75.75;102146.44;10634928;27;20062;-62
2022/03/16 22:07:17;;;;;;;18.45;11.82;;;;;;;10.32;75.94;102139.16;10648424;27;20049;-63
2022/03/16 22:12:39;;;;;;;21.52;12.77;;;;;;;10.34;76.03;102139.91;10649086;27;20407;-63
2022/03/16 22:18:00;;;;;;;19.80;12.18;;;;;;;10.33;76.02;102127.81;10647983;27;20057;-63
2022/03/16 22:23:23;;;;;;;25.40;13.93;;;;;;;10.37;76.24;102137.19;10648055;27;20053;-63
2022/03/16 22:28:45;;;;;;;26.92;13.52;;;;;;;10.52;75.18;102133.91;10648139;27;20039;-63
2022/03/16 22:34:07;;;;;;;23.85;14.25;;;;;;;10.17;76.70;102124.16;10647649;27;20498;-62
2022/03/16 22:39:29;;;;;;;22.13;13.23;;;;;;;10.18;76.66;102123.25;10647450;27;20051;-63
2022/03/16 22:44:50;;;;;;;24.38;13.48;;;;;;;10.28;77.51;102116.75;10647824;27;20054;-63
2022/03/16 22:50:13;;;;;;;22.30;13.52;;;;;;;10.42;77.02;102109.16;10648054;27;20038;-63
2022/03/16 22:55:34;;;;;;;22.67;15.32;;;;;;;10.29;77.04;102102.78;10633527;27;20050;-63
2022/03/16 23:00:57;;;;;;;41.90;22.65;;;;;;;10.13;78.45;102101.75;10647448;27;20043;-62
2022/03/16 23:06:19;;;;;;;25.50;15.63;;;;;;;10.35;76.73;102107.72;10645482;27;20082;-63
2022/03/16 23:11:40;;;;;;;25.92;15.95;;;;;;;10.29;77.65;102094.97;10646204;27;20039;-63
2022/03/16 23:17:02;;;;;;;31.88;16.90;;;;;;;10.30;76.79;102099.28;10645791;27;20050;-63
2022/03/16 23:22:24;;;;;;;28.15;15.77;;;;;;;10.23;76.70;102096.09;10646193;27;20071;-63
2022/03/16 23:27:47;;;;;;;26.63;16.17;;;;;;;10.21;77.00;102073.59;10657312;27;20051;-63
2022/03/16 23:33:08;;;;;;;29.02;16.45;;;;;;;10.36;76.23;102091.19;10645958;27;20062;-63
2022/03/16 23:38:30;;;;;;;26.02;16.80;;;;;;;10.27;77.68;102084.59;10645020;27;20062;-63
2022/03/16 23:43:51;;;;;;;26.92;16.65;;;;;;;10.10;76.73;102075.81;10645433;27;20494;-63
2022/03/16 23:49:13;;;;;;;22.13;14.70;;;;;;;10.16;77.91;102070.38;10643801;27;20127;-63
2022/03/16 23:54:35;;;;;;;27.13;16.08;;;;;;;10.11;76.78;102078.38;10658435;27;20050;-63
2022/03/16 23:59:59;;;;;;;23.45;16.00;;;;;;;10.16;77.31;102071.19;10644885;27;20051;-63
